createdAt,value
2024-04-23T00:00:25.192Z,35.70
2024-04-23T00:01:27.540Z,36.40
2024-04-23T00:02:29.918Z,38.60
2024-04-23T00:03:32.356Z,35.20
2024-04-23T00:04:34.607Z,34.60
2024-04-23T00:05:36.953Z,37.70
2024-04-23T00:06:39.252Z,35.30
2024-04-23T00:07:41.565Z,34.50
2024-04-23T00:08:44.127Z,39.80
2024-04-23T00:09:46.497Z,36.20
2024-04-23T00:10:48.934Z,37.80
2024-04-23T00:11:51.769Z,36.50
2024-04-23T00:12:54.155Z,38.30
2024-04-23T00:13:56.983Z,39.78
2024-04-23T00:14:59.458Z,40.00
2024-04-23T00:16:01.731Z,38.10
2024-04-23T00:17:05.025Z,42.10
2024-04-23T00:18:07.698Z,53.60
2024-04-23T00:19:09.915Z,55.30
2024-04-23T00:20:12.494Z,59.10
2024-04-23T00:21:14.694Z,54.30
2024-04-23T00:22:16.989Z,44.70
2024-04-23T00:23:19.208Z,42.90
2024-04-23T00:24:21.506Z,45.50
2024-04-23T00:25:25.448Z,47.20
2024-04-23T00:26:28.073Z,47.60
2024-04-23T00:27:30.407Z,47.10
2024-04-23T00:28:32.692Z,43.00
2024-04-23T00:29:34.932Z,39.70
2024-04-23T00:30:37.316Z,41.11
2024-04-23T00:31:39.889Z,37.90
2024-04-23T00:32:42.054Z,42.00
2024-04-23T00:33:44.571Z,39.40
2024-04-23T00:34:47.091Z,38.70
2024-04-23T00:35:49.279Z,36.50
2024-04-23T00:36:54.159Z,36.40
2024-04-23T00:37:56.589Z,33.80
2024-04-23T00:38:58.984Z,33.30
2024-04-23T00:40:01.433Z,36.80
2024-04-23T00:41:03.828Z,38.00
2024-04-23T00:42:06.216Z,40.10
2024-04-23T00:43:08.647Z,43.20
2024-04-23T00:44:10.784Z,40.30
2024-04-23T00:45:14.705Z,40.70
2024-04-23T00:46:17.568Z,40.60
2024-04-23T00:47:21.072Z,43.45
2024-04-23T00:48:23.701Z,43.70
2024-04-23T00:49:26.260Z,36.20
2024-04-23T00:50:28.828Z,34.90
2024-04-23T00:51:31.352Z,36.90
2024-04-23T00:52:33.930Z,39.30
2024-04-23T00:53:36.162Z,38.40
2024-04-23T00:54:38.520Z,40.80
2024-04-23T00:55:41.189Z,46.70
2024-04-23T00:56:44.042Z,40.91
2024-04-23T00:57:46.172Z,42.80
2024-04-23T00:58:48.867Z,37.90
2024-04-23T00:59:51.270Z,39.90
2024-04-23T01:00:54.235Z,34.50
2024-04-23T01:01:56.978Z,38.90
2024-04-23T01:02:59.944Z,33.36
2024-04-23T01:04:03.506Z,32.91
2024-04-23T01:05:05.980Z,36.20
2024-04-23T01:06:10.961Z,33.80
2024-04-23T01:07:13.262Z,33.70
2024-04-23T01:08:15.629Z,31.40
2024-04-23T01:09:18.720Z,26.00
2024-04-23T01:10:21.254Z,30.55
2024-04-23T01:11:23.544Z,36.70
2024-04-23T01:12:25.881Z,35.50
2024-04-23T01:13:28.286Z,37.30
2024-04-23T01:14:31.442Z,32.90
2024-04-23T01:15:34.836Z,40.40
2024-04-23T01:16:42.584Z,33.80
2024-04-23T01:17:46.224Z,34.00
2024-04-23T01:18:48.836Z,35.50
2024-04-23T01:19:54.803Z,34.50
2024-04-23T01:20:59.246Z,36.50
2024-04-23T01:22:10.152Z,37.70
2024-04-23T01:23:18.304Z,34.70
2024-04-23T01:24:23.664Z,33.40
2024-04-23T01:25:26.942Z,36.10
2024-04-23T01:26:29.931Z,35.70
2024-04-23T01:27:33.164Z,34.36
2024-04-23T01:28:37.186Z,34.60
2024-04-23T01:29:40.206Z,36.70
2024-04-23T01:30:43.913Z,42.09
2024-04-23T01:31:46.830Z,50.20
2024-04-23T01:32:49.878Z,51.60
2024-04-23T01:33:54.219Z,47.80
2024-04-23T01:34:57.128Z,43.70
2024-04-23T01:35:59.599Z,37.70
2024-04-23T01:37:03.539Z,38.30
2024-04-23T01:38:06.159Z,12.30
2024-04-23T01:39:08.652Z,34.60
2024-04-23T01:40:11.764Z,32.09
2024-04-23T01:41:14.248Z,34.60
2024-04-23T01:42:17.103Z,33.10
2024-04-23T01:43:19.583Z,35.64
2024-04-23T01:44:21.875Z,35.80
2024-04-23T01:45:24.543Z,33.00
2024-04-23T01:46:27.414Z,33.40
2024-04-23T01:47:30.021Z,36.45
2024-04-23T01:48:32.752Z,33.20
2024-04-23T01:49:35.417Z,32.60
2024-04-23T01:50:37.800Z,32.50
2024-04-23T01:51:40.400Z,33.80
2024-04-23T01:52:43.509Z,32.30
2024-04-23T01:53:45.692Z,31.40
2024-04-23T01:54:48.520Z,35.60
2024-04-23T01:55:50.694Z,34.30
2024-04-23T01:56:53.456Z,35.40
2024-04-23T01:57:55.985Z,38.80
2024-04-23T01:58:58.299Z,33.40
2024-04-23T02:00:04.191Z,35.70
2024-04-23T02:01:07.350Z,35.60
2024-04-23T02:02:09.824Z,41.50
2024-04-23T02:03:13.734Z,43.50
2024-04-23T02:04:18.686Z,39.90
2024-04-23T02:05:21.663Z,47.00
2024-04-23T02:06:24.686Z,53.55
2024-04-23T02:07:27.359Z,59.20
2024-04-23T02:08:29.721Z,62.90
2024-04-23T02:09:33.309Z,64.40
2024-04-23T02:10:38.560Z,65.50
2024-04-23T02:11:41.545Z,70.50
2024-04-23T02:12:44.020Z,68.90
2024-04-23T02:13:46.459Z,58.80
2024-04-23T02:14:48.656Z,50.80
2024-04-23T02:15:50.825Z,50.60
2024-04-23T02:16:53.398Z,39.70
2024-04-23T02:17:56.134Z,41.70
2024-04-23T02:18:58.328Z,42.10
2024-04-23T02:20:02.300Z,34.40
2024-04-23T02:21:05.282Z,31.60
2024-04-23T02:22:07.589Z,32.20
2024-04-23T02:23:09.846Z,26.30
2024-04-23T02:24:12.225Z,22.00
2024-04-23T02:25:14.501Z,19.80
2024-04-23T02:26:16.754Z,19.00
2024-04-23T02:27:19.269Z,20.50
2024-04-23T02:28:21.561Z,18.70
2024-04-23T02:29:23.762Z,18.80
2024-04-23T02:30:25.803Z,19.89
2024-04-23T02:31:28.310Z,17.10
2024-04-23T02:32:30.615Z,17.30
2024-04-23T02:33:33.010Z,18.40
2024-04-23T02:34:35.401Z,19.60
2024-04-23T02:35:41.490Z,20.50
2024-04-23T02:36:43.745Z,20.80
2024-04-23T02:37:46.019Z,21.20
2024-04-23T02:38:48.393Z,20.20
2024-04-23T02:39:50.639Z,16.40
2024-04-23T02:40:53.095Z,16.20
2024-04-23T02:41:55.459Z,17.60
2024-04-23T02:42:57.756Z,16.50
2024-04-23T02:44:00.138Z,17.60
2024-04-23T02:45:02.639Z,14.50
2024-04-23T02:46:06.026Z,17.90
2024-04-23T02:47:08.301Z,16.90
2024-04-23T02:48:10.748Z,17.70
2024-04-23T02:49:13.239Z,15.40
2024-04-23T02:50:15.535Z,10.50
2024-04-23T02:51:17.622Z,7.90
2024-04-23T02:52:19.881Z,16.20
2024-04-23T02:53:21.946Z,14.90
2024-04-23T02:54:24.312Z,14.00
2024-04-23T02:55:27.848Z,15.50
2024-04-23T02:56:30.061Z,13.90
2024-04-23T02:57:32.405Z,14.90
2024-04-23T02:58:34.782Z,13.10
2024-04-23T02:59:37.061Z,16.20
2024-04-23T03:00:39.326Z,15.70
2024-04-23T03:01:41.579Z,18.00
2024-04-23T03:02:43.864Z,14.30
2024-04-23T03:03:46.369Z,13.60
2024-04-23T03:04:48.780Z,14.50
2024-04-23T03:05:51.338Z,14.00
2024-04-23T03:06:53.690Z,16.10
2024-04-23T03:07:56.000Z,16.80
2024-04-23T03:08:58.277Z,14.80
2024-04-23T03:10:00.665Z,16.90
2024-04-23T03:11:03.270Z,17.20
2024-04-23T03:12:05.929Z,16.40
2024-04-23T03:13:08.518Z,15.90
2024-04-23T03:14:10.699Z,15.60
2024-04-23T03:15:12.987Z,15.30
2024-04-23T03:16:15.921Z,16.27
2024-04-23T03:17:18.137Z,16.70
2024-04-23T03:18:20.373Z,18.50
2024-04-23T03:19:22.749Z,17.50
2024-04-23T03:20:25.218Z,16.70
2024-04-23T03:21:27.418Z,19.30
2024-04-23T03:22:29.691Z,15.60
2024-04-23T03:23:31.905Z,16.40
2024-04-23T03:24:34.242Z,15.40
2024-04-23T03:25:38.729Z,16.00
2024-04-23T03:26:40.817Z,15.20
2024-04-23T03:27:42.994Z,15.80
2024-04-23T03:28:45.370Z,15.56
2024-04-23T03:29:47.660Z,15.40
2024-04-23T03:30:50.364Z,15.60
2024-04-23T03:32:03.683Z,14.80
2024-04-23T03:33:06.397Z,16.40
2024-04-23T03:34:08.701Z,16.70
2024-04-23T03:35:11.384Z,17.10
2024-04-23T03:36:17.661Z,19.40
2024-04-23T03:37:18.616Z,15.60
2024-04-23T03:38:20.703Z,16.30
2024-04-23T03:39:22.752Z,16.50
2024-04-23T03:40:25.415Z,16.50
2024-04-23T03:41:28.304Z,15.00
2024-04-23T03:42:30.727Z,16.90
2024-04-23T03:43:32.961Z,17.90
2024-04-23T03:44:37.609Z,16.20
2024-04-23T03:45:39.320Z,18.30
2024-04-23T03:46:41.773Z,19.00
2024-04-23T03:47:44.161Z,17.10
2024-04-23T03:48:46.418Z,17.10
2024-04-23T03:49:48.744Z,14.70
2024-04-23T03:50:51.489Z,18.10
2024-04-23T03:51:54.062Z,14.00
2024-04-23T03:52:56.393Z,10.20
2024-04-23T03:53:58.617Z,16.80
2024-04-23T03:55:00.841Z,15.50
2024-04-23T03:56:03.492Z,16.00
2024-04-23T03:57:05.644Z,13.00
2024-04-23T03:58:08.033Z,16.80
2024-04-23T03:59:10.158Z,17.10
2024-04-23T04:00:13.299Z,14.70
2024-04-23T04:01:15.480Z,14.91
2024-04-23T04:02:17.961Z,13.70
2024-04-23T04:03:20.332Z,14.30
2024-04-23T04:04:23.126Z,14.40
2024-04-23T04:05:26.153Z,13.73
2024-04-23T04:06:28.456Z,16.80
2024-04-23T04:07:30.822Z,16.40
2024-04-23T04:08:36.394Z,15.20
2024-04-23T04:09:38.627Z,13.40
2024-04-23T04:10:41.181Z,14.00
2024-04-23T04:11:43.752Z,14.30
2024-04-23T04:12:46.258Z,16.10
2024-04-23T04:13:48.568Z,12.90
2024-04-23T04:14:50.844Z,15.80
2024-04-23T04:15:53.082Z,14.30
2024-04-23T04:17:09.200Z,13.00
2024-04-23T04:18:11.690Z,16.30
2024-04-23T04:19:13.968Z,14.70
2024-04-23T04:20:16.300Z,13.30
2024-04-23T04:21:18.866Z,13.80
2024-04-23T04:22:21.124Z,15.70
2024-04-23T04:23:23.668Z,13.50
2024-04-23T04:24:25.968Z,15.00
2024-04-23T04:25:28.647Z,11.70
2024-04-23T04:26:31.382Z,12.30
2024-04-23T04:27:33.704Z,13.50
2024-04-23T04:28:36.006Z,14.00
2024-04-23T04:29:38.212Z,12.50
2024-04-23T04:30:40.925Z,14.60
2024-04-23T04:31:43.331Z,13.30
2024-04-23T04:32:45.971Z,14.50
2024-04-23T04:33:48.432Z,14.50
2024-04-23T04:34:50.753Z,11.40
2024-04-23T04:35:53.466Z,12.60
2024-04-23T04:36:56.323Z,13.00
2024-04-23T04:37:58.525Z,10.70
2024-04-23T04:39:01.192Z,12.10
2024-04-23T04:40:04.020Z,13.10
2024-04-23T04:41:06.556Z,11.00
2024-04-23T04:42:08.861Z,11.50
2024-04-23T04:43:11.316Z,11.50
2024-04-23T04:44:13.577Z,13.70
2024-04-23T04:45:15.876Z,11.40
2024-04-23T04:46:18.233Z,13.60
2024-04-23T04:47:20.523Z,12.70
2024-04-23T04:48:22.904Z,10.60
2024-04-23T04:49:25.594Z,11.40
2024-04-23T04:50:28.610Z,11.40
2024-04-23T04:51:30.870Z,13.10
2024-04-23T04:52:33.127Z,11.30
2024-04-23T04:53:35.595Z,13.10
2024-04-23T04:54:37.787Z,11.50
2024-04-23T04:55:40.200Z,12.60
2024-04-23T04:56:42.624Z,10.80
2024-04-23T04:57:45.002Z,12.10
2024-04-23T04:58:47.395Z,12.20
2024-04-23T04:59:50.078Z,12.40
2024-04-23T05:00:52.481Z,12.20
2024-04-23T05:01:54.788Z,12.40
2024-04-23T05:02:57.085Z,12.60
2024-04-23T05:03:59.304Z,11.10
2024-04-23T05:05:01.800Z,11.70
2024-04-23T05:06:04.800Z,11.30
2024-04-23T05:07:07.015Z,10.10
2024-04-23T05:08:09.736Z,10.30
2024-04-23T05:09:12.624Z,11.36
2024-04-23T05:10:15.518Z,9.30
2024-04-23T05:11:17.941Z,11.90
2024-04-23T05:12:20.215Z,9.90
2024-04-23T05:13:22.558Z,9.70
2024-04-23T05:14:24.681Z,9.90
2024-04-23T05:15:27.157Z,9.30
2024-04-23T05:16:29.845Z,10.50
2024-04-23T05:17:32.400Z,10.00
2024-04-23T05:18:37.036Z,11.20
2024-04-23T05:19:38.933Z,9.40
2024-04-23T05:20:41.576Z,9.80
2024-04-23T05:21:44.173Z,9.70
2024-04-23T05:22:46.988Z,12.60
2024-04-23T05:23:49.501Z,9.20
2024-04-23T05:24:52.047Z,7.00
2024-04-23T05:25:54.291Z,10.00
2024-04-23T05:26:56.982Z,8.40
2024-04-23T05:27:59.256Z,9.70
2024-04-23T05:29:01.507Z,8.90
2024-04-23T05:30:04.647Z,10.10
2024-04-23T05:31:06.943Z,9.55
2024-04-23T05:32:11.743Z,9.50
2024-04-23T05:33:14.257Z,9.90
2024-04-23T05:34:16.606Z,9.30
2024-04-23T05:35:19.210Z,9.50
2024-04-23T05:36:21.808Z,8.70
2024-04-23T05:37:24.134Z,12.00
2024-04-23T05:38:26.348Z,11.20
2024-04-23T05:39:28.871Z,9.40
2024-04-23T05:40:31.594Z,9.27
2024-04-23T05:41:34.300Z,9.00
2024-04-23T05:42:36.492Z,10.50
2024-04-23T05:43:38.872Z,8.50
2024-04-23T05:44:41.154Z,10.30
2024-04-23T05:45:43.583Z,9.60
2024-04-23T05:46:46.107Z,8.00
2024-04-23T05:48:25.746Z,9.70
2024-04-23T05:50:27.329Z,12.30
2024-04-23T05:52:29.938Z,12.20
2024-04-23T05:54:23.282Z,8.50
2024-04-23T05:55:46.662Z,7.00
2024-04-23T05:56:48.568Z,9.20
2024-04-23T05:57:51.232Z,8.00
2024-04-23T05:58:53.718Z,11.20
2024-04-23T05:59:55.942Z,7.70
2024-04-23T06:01:00.260Z,8.20
2024-04-23T06:02:02.511Z,8.80
2024-04-23T06:03:08.004Z,8.60
2024-04-23T06:04:10.535Z,9.40
2024-04-23T06:05:13.401Z,10.90
2024-04-23T06:06:15.978Z,5.55
2024-04-23T06:07:20.054Z,9.30
2024-04-23T06:08:22.471Z,6.90
2024-04-23T06:09:24.825Z,9.20
2024-04-23T06:10:27.282Z,8.70
2024-04-23T06:11:30.032Z,9.60
2024-04-23T06:12:32.724Z,8.70
2024-04-23T06:13:35.163Z,8.60
2024-04-23T06:14:37.353Z,10.20
2024-04-23T06:15:39.725Z,8.50
2024-04-23T06:16:42.136Z,10.60
2024-04-23T06:17:47.977Z,14.50
2024-04-23T06:18:48.908Z,8.60
2024-04-23T06:19:52.217Z,8.60
2024-04-23T06:20:55.136Z,7.00
2024-04-23T06:21:57.401Z,20.40
2024-04-23T06:22:59.763Z,54.80
2024-04-23T06:24:02.071Z,33.20
2024-04-23T06:25:07.430Z,16.40
2024-04-23T06:26:10.466Z,22.30
2024-04-23T06:27:12.937Z,50.00
2024-04-23T06:28:15.252Z,29.60
2024-04-23T06:29:17.450Z,17.50
2024-04-23T06:30:20.268Z,14.40
2024-04-23T06:31:22.513Z,14.00
2024-04-23T06:32:25.083Z,9.80
2024-04-23T06:33:27.743Z,8.80
2024-04-23T06:34:29.914Z,8.60
2024-04-23T06:35:32.227Z,7.00
2024-04-23T06:36:35.051Z,9.60
2024-04-23T06:37:37.696Z,9.30
2024-04-23T06:38:39.976Z,9.80
2024-04-23T06:39:43.592Z,7.60
2024-04-23T06:40:46.706Z,8.00
2024-04-23T06:41:49.010Z,8.00
2024-04-23T06:42:51.334Z,8.70
2024-04-23T06:43:53.641Z,8.80
2024-04-23T06:44:55.885Z,8.70
2024-04-23T06:46:00.067Z,9.00
2024-04-23T06:47:02.471Z,9.00
2024-04-23T06:48:06.315Z,10.90
2024-04-23T06:49:09.342Z,9.40
2024-04-23T06:50:12.135Z,21.00
2024-04-23T06:51:14.413Z,26.60
2024-04-23T06:52:16.990Z,13.30
2024-04-23T06:53:19.423Z,12.40
2024-04-23T06:54:21.869Z,9.30
2024-04-23T06:55:25.920Z,7.60
2024-04-23T06:56:28.454Z,15.90
2024-04-23T06:57:31.221Z,13.30
2024-04-23T06:58:33.399Z,12.20
2024-04-23T06:59:35.589Z,12.70
2024-04-23T07:00:38.033Z,10.40
2024-04-23T07:01:40.475Z,10.70
2024-04-23T07:02:42.809Z,10.50
2024-04-23T07:03:45.143Z,9.70
2024-04-23T07:04:47.482Z,10.90
2024-04-23T07:05:51.435Z,11.10
2024-04-23T07:06:54.641Z,10.30
2024-04-23T07:07:56.890Z,9.70
2024-04-23T07:08:59.232Z,9.40
2024-04-23T07:10:01.622Z,9.80
2024-04-23T07:11:04.563Z,11.40
2024-04-23T07:12:07.391Z,11.27
2024-04-23T07:13:09.455Z,10.60
2024-04-23T07:14:12.039Z,13.70
2024-04-23T07:15:16.129Z,19.60
2024-04-23T07:16:18.949Z,16.90
2024-04-23T07:17:21.200Z,11.70
2024-04-23T07:18:23.792Z,11.10
2024-04-23T07:19:26.281Z,10.50
2024-04-23T07:20:29.165Z,11.55
2024-04-23T07:21:31.711Z,9.10
2024-04-23T07:22:34.205Z,10.80
2024-04-23T07:23:36.649Z,13.30
2024-04-23T07:24:38.927Z,59.30
2024-04-23T07:25:41.265Z,54.60
2024-04-23T07:26:43.975Z,61.00
2024-04-23T07:27:53.082Z,35.60
2024-04-23T07:28:58.108Z,18.80
2024-04-23T07:30:01.185Z,11.30
2024-04-23T07:31:03.638Z,10.45
2024-04-23T07:32:07.529Z,11.60
2024-04-23T07:33:20.619Z,12.90
2024-04-23T07:34:23.417Z,11.50
2024-04-23T07:35:27.102Z,10.82
2024-04-23T07:36:30.323Z,10.30
2024-04-23T07:37:36.463Z,9.40
2024-04-23T07:38:40.184Z,10.90
2024-04-23T07:39:44.649Z,10.45
2024-04-23T07:40:49.154Z,11.60
2024-04-23T07:41:53.655Z,12.60
2024-04-23T07:42:56.125Z,16.50
2024-04-23T07:43:58.617Z,10.40
2024-04-23T07:45:01.081Z,9.50
2024-04-23T07:46:04.295Z,9.10
2024-04-23T07:47:08.176Z,11.70
2024-04-23T07:48:14.004Z,9.60
2024-04-23T07:49:18.409Z,7.40
2024-04-23T07:50:22.063Z,7.50
2024-04-23T07:51:25.789Z,7.70
2024-04-23T07:52:31.722Z,7.20
2024-04-23T07:53:34.096Z,7.60
2024-04-23T07:54:37.367Z,7.50
2024-04-23T07:55:40.154Z,7.00
2024-04-23T07:56:44.699Z,8.64
2024-04-23T07:57:47.941Z,8.00
2024-04-23T07:58:50.725Z,8.30
2024-04-23T07:59:53.325Z,8.40
2024-04-23T08:00:56.242Z,7.60
2024-04-23T08:01:58.725Z,7.20
2024-04-23T08:03:03.162Z,6.70
2024-04-23T08:04:07.395Z,6.00
2024-04-23T08:05:11.721Z,7.20
2024-04-23T08:06:14.538Z,7.20
2024-04-23T08:07:16.878Z,6.80
2024-04-23T08:08:21.662Z,5.70
2024-04-23T08:09:24.274Z,6.50
2024-04-23T08:10:28.283Z,6.64
2024-04-23T08:11:30.707Z,7.70
2024-04-23T08:12:33.506Z,7.60
2024-04-23T08:13:35.948Z,8.80
2024-04-23T08:14:38.409Z,8.90
2024-04-23T08:15:41.186Z,8.30
2024-04-23T08:16:47.186Z,9.20
2024-04-23T08:17:49.734Z,9.30
2024-04-23T08:18:54.121Z,9.10
2024-04-23T08:19:56.774Z,8.10
2024-04-23T08:21:01.910Z,7.40
2024-04-23T08:22:04.777Z,6.80
2024-04-23T08:23:09.135Z,5.50
2024-04-23T08:24:11.821Z,7.10
2024-04-23T08:25:16.637Z,6.70
2024-04-23T08:26:19.416Z,7.10
2024-04-23T08:27:21.890Z,9.00
2024-04-23T08:28:24.452Z,7.80
2024-04-23T08:29:28.185Z,6.40
2024-04-23T08:30:30.741Z,7.90
2024-04-23T08:31:34.682Z,8.70
2024-04-23T08:32:37.252Z,6.50
2024-04-23T08:33:42.967Z,9.70
2024-04-23T08:34:45.487Z,7.00
2024-04-23T08:35:48.905Z,8.20
2024-04-23T08:36:52.386Z,6.50
2024-04-23T08:37:55.056Z,7.40
2024-04-23T08:38:58.919Z,6.80
2024-04-23T08:40:01.921Z,7.60
2024-04-23T08:41:06.513Z,5.73
2024-04-23T08:42:12.493Z,6.80
2024-04-23T08:43:22.546Z,6.30
2024-04-23T08:44:27.026Z,6.70
2024-04-23T08:45:33.499Z,8.60
2024-04-23T08:46:36.279Z,9.80
2024-04-23T08:47:39.833Z,8.30
2024-04-23T08:48:43.970Z,8.50
2024-04-23T08:49:48.088Z,8.50
2024-04-23T08:50:52.846Z,7.00
2024-04-23T08:51:59.539Z,6.70
2024-04-23T08:53:04.143Z,6.70
2024-04-23T08:54:06.853Z,5.80
2024-04-23T08:55:09.738Z,3.20
2024-04-23T08:56:19.902Z,5.90
2024-04-23T08:57:22.648Z,6.30
2024-04-23T08:58:27.827Z,8.00
2024-04-23T08:59:32.375Z,5.80
2024-04-23T09:00:48.748Z,8.00
2024-04-23T09:01:53.536Z,6.70
2024-04-23T09:02:58.203Z,7.30
2024-04-23T09:04:03.153Z,7.80
2024-04-23T09:05:06.142Z,6.50
2024-04-23T09:06:09.267Z,8.90
2024-04-23T09:07:24.400Z,7.80
2024-04-23T09:08:19.772Z,10.30
2024-04-23T09:09:41.346Z,6.70
2024-04-23T09:10:46.029Z,6.50
2024-04-23T09:11:52.745Z,8.10
2024-04-23T09:12:57.496Z,7.40
2024-04-23T09:14:21.961Z,62.20
2024-04-23T09:15:30.993Z,120.90
2024-04-23T09:16:41.237Z,63.40
2024-04-23T09:17:46.414Z,28.80
2024-04-23T09:18:49.368Z,12.20
2024-04-23T09:19:54.705Z,11.00
2024-04-23T09:20:58.249Z,8.50
2024-04-23T09:22:09.993Z,10.80
2024-04-23T09:23:14.699Z,10.40
2024-04-23T09:24:26.874Z,11.40
2024-04-23T09:25:37.040Z,11.50
2024-04-23T09:26:40.393Z,13.30
2024-04-23T09:27:42.993Z,13.10
2024-04-23T09:29:06.336Z,13.70
2024-04-23T09:30:10.123Z,43.80
2024-04-23T09:31:13.549Z,59.00
2024-04-23T09:32:17.411Z,44.90
2024-04-23T09:33:24.560Z,85.70
2024-04-23T09:34:33.420Z,76.90
2024-04-23T09:35:33.221Z,67.90
2024-04-23T09:36:35.831Z,28.20
2024-04-23T09:37:38.155Z,16.50
2024-04-23T09:38:41.460Z,5.50
2024-04-23T09:39:46.005Z,7.90
2024-04-23T09:40:48.231Z,7.50
2024-04-23T09:41:57.297Z,8.40
2024-04-23T09:42:59.987Z,10.10
2024-04-23T09:44:02.345Z,13.50
2024-04-23T09:45:06.222Z,14.80
2024-04-23T09:46:11.170Z,10.30
2024-04-23T09:47:13.701Z,67.00
2024-04-23T09:48:16.391Z,75.30
2024-04-23T09:49:19.448Z,59.10
2024-04-23T09:50:29.566Z,66.09
2024-04-23T09:51:33.770Z,85.00
2024-04-23T09:52:36.149Z,56.60
2024-04-23T09:53:43.071Z,40.10
2024-04-23T09:54:45.692Z,31.50
2024-04-23T09:55:55.883Z,34.70
2024-04-23T09:57:02.556Z,27.40
2024-04-23T09:58:04.985Z,13.60
2024-04-23T09:59:13.157Z,9.10
2024-04-23T10:00:16.106Z,7.00
2024-04-23T10:01:21.375Z,12.82
2024-04-23T10:02:28.780Z,29.90
2024-04-23T10:03:34.396Z,15.30
2024-04-23T10:04:38.534Z,9.90
2024-04-23T10:05:43.041Z,9.60
2024-04-23T10:06:47.830Z,18.40
2024-04-23T10:08:13.789Z,20.30
2024-04-23T10:09:18.650Z,18.80
2024-04-23T10:10:24.329Z,17.50
2024-04-23T10:11:28.755Z,17.90
2024-04-23T10:12:32.063Z,21.40
2024-04-23T10:13:37.302Z,8.90
2024-04-23T10:14:52.258Z,10.40
2024-04-23T10:15:56.860Z,15.90
2024-04-23T10:17:18.048Z,16.20
2024-04-23T10:18:26.544Z,9.50
2024-04-23T10:19:30.083Z,9.60
2024-04-23T10:20:36.377Z,13.20
2024-04-23T10:21:42.110Z,7.30
2024-04-23T10:22:45.243Z,7.80
2024-04-23T10:23:47.975Z,6.90
2024-04-23T10:24:51.105Z,10.18
2024-04-23T10:25:55.299Z,16.80
2024-04-23T10:26:57.748Z,10.90
2024-04-23T10:28:00.165Z,9.10
2024-04-23T10:29:02.480Z,8.20
2024-04-23T10:30:06.235Z,8.10
2024-04-23T10:31:10.325Z,9.10
2024-04-23T10:32:13.980Z,8.20
2024-04-23T10:33:17.849Z,7.70
2024-04-23T10:34:21.496Z,9.40
2024-04-23T10:35:24.322Z,7.70
2024-04-23T10:36:27.825Z,7.80
2024-04-23T10:37:35.220Z,10.30
2024-04-23T10:38:37.720Z,7.60
2024-04-23T10:39:40.984Z,7.27
2024-04-23T10:40:52.542Z,8.00
2024-04-23T10:41:56.554Z,9.90
2024-04-23T10:42:59.025Z,8.70
2024-04-23T10:44:02.570Z,8.60
2024-04-23T10:45:06.892Z,9.00
2024-04-23T10:46:12.005Z,30.80
2024-04-23T10:47:16.324Z,53.10
2024-04-23T10:48:26.785Z,50.80
2024-04-23T10:49:29.354Z,50.70
2024-04-23T10:50:32.046Z,43.40
2024-04-23T10:51:34.868Z,49.80
2024-04-23T10:52:37.195Z,39.00
2024-04-23T10:53:39.564Z,40.40
2024-04-23T10:54:41.891Z,59.90
2024-04-23T10:55:49.447Z,76.80
2024-04-23T10:57:02.601Z,76.60
2024-04-23T10:58:07.779Z,62.80
2024-04-23T10:59:14.199Z,45.50
2024-04-23T11:00:16.900Z,25.40
2024-04-23T11:01:24.317Z,19.80
2024-04-23T11:02:26.921Z,13.70
2024-04-23T11:03:30.823Z,10.40
2024-04-23T11:04:47.106Z,7.30
2024-04-23T11:05:50.064Z,8.30
2024-04-23T11:06:56.579Z,8.40
2024-04-23T11:08:06.362Z,9.40
2024-04-23T11:09:18.789Z,10.40
2024-04-23T11:10:21.179Z,7.70
2024-04-23T11:11:23.867Z,7.60
2024-04-23T11:12:27.466Z,6.27
2024-04-23T11:13:37.418Z,7.40
2024-04-23T11:14:39.665Z,6.30
2024-04-23T11:15:42.140Z,9.00
2024-04-23T11:16:44.774Z,9.10
2024-04-23T11:17:47.244Z,9.20
2024-04-23T11:18:51.618Z,7.50
2024-04-23T11:19:54.618Z,7.90
2024-04-23T11:20:58.872Z,6.50
2024-04-23T11:22:02.060Z,6.80
2024-04-23T11:23:06.236Z,8.82
2024-04-23T11:24:11.217Z,7.80
2024-04-23T11:25:17.379Z,9.10
2024-04-23T11:26:23.152Z,9.00
2024-04-23T11:27:25.635Z,9.00
2024-04-23T11:28:28.009Z,9.10
2024-04-23T11:29:30.452Z,8.50
2024-04-23T11:30:33.121Z,8.00
2024-04-23T11:31:35.711Z,8.20
2024-04-23T11:32:38.483Z,8.30
2024-04-23T11:33:42.264Z,7.80
2024-04-23T11:34:46.321Z,10.70
2024-04-23T11:35:52.963Z,8.30
2024-04-23T11:36:55.204Z,8.10
2024-04-23T11:37:58.039Z,8.80
2024-04-23T11:39:00.524Z,8.45
2024-04-23T11:40:03.524Z,8.50
2024-04-23T11:41:07.105Z,7.82
2024-04-23T11:42:12.369Z,9.50
2024-04-23T11:43:18.789Z,14.70
2024-04-23T11:44:24.545Z,11.70
2024-04-23T11:45:26.856Z,19.40
2024-04-23T11:46:30.185Z,21.00
2024-04-23T11:47:32.739Z,10.80
2024-04-23T11:48:35.671Z,8.60
2024-04-23T11:49:38.613Z,13.73
2024-04-23T11:50:42.184Z,14.30
2024-04-23T11:51:44.704Z,10.60
2024-04-23T11:52:48.028Z,10.80
2024-04-23T11:53:50.508Z,11.90
2024-04-23T11:54:54.067Z,11.60
2024-04-23T11:55:57.911Z,9.00
2024-04-23T11:57:00.448Z,9.50
2024-04-23T11:58:02.826Z,8.10
2024-04-23T11:59:05.228Z,7.90
2024-04-23T12:00:08.627Z,7.70
2024-04-23T12:01:11.029Z,8.70
2024-04-23T12:02:16.511Z,7.50
2024-04-23T12:03:19.354Z,8.80
2024-04-23T12:04:22.275Z,7.40
2024-04-23T12:05:26.161Z,7.80
2024-04-23T12:06:29.220Z,9.36
2024-04-23T12:07:31.876Z,7.20
2024-04-23T12:08:34.556Z,7.90
2024-04-23T12:09:37.251Z,11.82
2024-04-23T12:10:41.913Z,10.60
2024-04-23T12:11:56.086Z,10.40
2024-04-23T12:12:58.606Z,6.70
2024-04-23T12:14:00.734Z,7.40
2024-04-23T12:15:03.913Z,7.50
2024-04-23T12:16:06.963Z,6.30
2024-04-23T12:17:09.187Z,6.50
2024-04-23T12:18:11.768Z,7.40
2024-04-23T12:19:14.418Z,5.30
2024-04-23T12:20:17.459Z,6.70
2024-04-23T12:21:19.667Z,7.60
2024-04-23T12:22:21.988Z,7.80
2024-04-23T12:23:24.739Z,9.00
2024-04-23T12:24:29.392Z,2.60
2024-04-23T12:25:34.064Z,8.90
2024-04-23T12:26:36.768Z,7.30
2024-04-23T12:27:41.527Z,7.10
2024-04-23T12:28:44.313Z,7.10
2024-04-23T12:29:46.511Z,8.00
2024-04-23T12:30:49.278Z,6.60
2024-04-23T12:32:00.190Z,5.20
2024-04-23T12:33:13.494Z,5.90
2024-04-23T12:34:18.578Z,6.30
2024-04-23T12:35:21.040Z,4.40
2024-04-23T12:36:24.108Z,5.36
2024-04-23T12:37:26.468Z,6.40
2024-04-23T12:38:28.637Z,5.50
2024-04-23T12:39:31.018Z,4.80
2024-04-23T12:40:33.795Z,5.80
2024-04-23T12:41:36.150Z,6.50
2024-04-23T12:42:42.404Z,5.70
2024-04-23T12:43:43.809Z,5.20
2024-04-23T12:44:46.158Z,6.40
2024-04-23T12:45:48.574Z,6.20
2024-04-23T12:46:50.822Z,4.90
2024-04-23T12:47:53.209Z,5.60
2024-04-23T12:48:58.099Z,5.30
2024-04-23T12:50:02.914Z,4.70
2024-04-23T12:51:07.379Z,4.50
2024-04-23T12:52:09.909Z,5.10
2024-04-23T12:53:12.390Z,4.60
2024-04-23T12:54:15.471Z,4.60
2024-04-23T12:55:19.901Z,3.20
2024-04-23T12:56:23.923Z,5.10
2024-04-23T12:57:26.480Z,4.00
2024-04-23T12:58:28.965Z,4.40
2024-04-23T12:59:31.409Z,5.10
2024-04-23T13:00:33.861Z,4.70
2024-04-23T13:01:42.427Z,4.00
2024-04-23T13:02:42.971Z,5.30
2024-04-23T13:03:45.433Z,6.27
2024-04-23T13:04:47.944Z,5.30
2024-04-23T13:05:50.398Z,4.30
2024-04-23T13:06:52.955Z,4.36
2024-04-23T13:07:55.286Z,4.90
2024-04-23T13:08:57.793Z,4.00
2024-04-23T13:09:59.995Z,4.60
2024-04-23T13:11:02.315Z,4.10
2024-04-23T13:12:06.982Z,5.10
2024-04-23T13:13:09.441Z,6.40
2024-04-23T13:14:11.726Z,4.70
2024-04-23T13:15:14.214Z,4.30
2024-04-23T13:16:16.713Z,4.50
2024-04-23T13:17:18.976Z,4.90
2024-04-23T13:18:21.339Z,6.10
2024-04-23T13:19:23.615Z,5.20
2024-04-23T13:20:26.224Z,6.20
2024-04-23T13:21:28.520Z,6.60
2024-04-23T13:22:30.844Z,6.50
2024-04-23T13:23:33.057Z,7.10
2024-04-23T13:24:35.181Z,9.00
2024-04-23T13:25:37.928Z,9.60
2024-04-23T13:26:40.369Z,7.50
2024-04-23T13:27:43.128Z,6.30
2024-04-23T13:28:45.437Z,7.00
2024-04-23T13:29:48.118Z,6.50
2024-04-23T13:30:54.789Z,4.91
2024-04-23T13:31:57.766Z,6.10
2024-04-23T13:33:00.469Z,6.30
2024-04-23T13:34:03.050Z,4.64
2024-04-23T13:35:05.897Z,5.90
2024-04-23T13:36:10.392Z,5.10
2024-04-23T13:37:12.837Z,6.10
2024-04-23T13:38:15.081Z,4.90
2024-04-23T13:39:17.562Z,5.10
2024-04-23T13:40:20.467Z,5.90
2024-04-23T13:41:22.726Z,6.80
2024-04-23T13:42:25.196Z,9.10
2024-04-23T13:43:27.631Z,6.60
2024-04-23T13:44:30.144Z,5.30
2024-04-23T13:45:32.294Z,6.10
2024-04-23T13:46:34.607Z,5.40
2024-04-23T13:47:38.433Z,8.70
2024-04-23T13:48:40.932Z,7.00
2024-04-23T13:49:43.382Z,6.40
2024-04-23T13:50:45.851Z,7.40
2024-04-23T13:51:47.909Z,6.40
2024-04-23T13:52:50.248Z,5.40